sensor_id;sensor_type;location;lat;lon;timestamp;P1;durP1;ratioP1;P2;durP2;ratioP2
9208;SDS011;4639;48.862;9.188;2023-04-27T00:00:55;9.73;;;6.03;;
9208;SDS011;4639;48.862;9.188;2023-04-27T00:07:24;6.93;;;5.47;;
9208;SDS011;4639;48.862;9.188;2023-04-27T00:10:34;9.30;;;5.78;;
9208;SDS011;4639;48.862;9.188;2023-04-27T00:13:18;9.02;;;6.15;;
9208;SDS011;4639;48.862;9.188;2023-04-27T00:16:17;8.73;;;5.20;;
9208;SDS011;4639;48.862;9.188;2023-04-27T00:19:32;8.18;;;5.80;;
9208;SDS011;4639;48.862;9.188;2023-04-27T00:22:42;8.18;;;4.88;;
9208;SDS011;4639;48.862;9.188;2023-04-27T00:36:19;6.93;;;4.70;;
9208;SDS011;4639;48.862;9.188;2023-04-27T00:52:02;9.45;;;5.70;;
9208;SDS011;4639;48.862;9.188;2023-04-27T00:54:47;10.35;;;5.55;;
9208;SDS011;4639;48.862;9.188;2023-04-27T00:57:19;8.70;;;5.18;;
9208;SDS011;4639;48.862;9.188;2023-04-27T00:59:48;9.23;;;5.40;;
9208;SDS011;4639;48.862;9.188;2023-04-27T01:02:14;10.82;;;6.03;;
9208;SDS011;4639;48.862;9.188;2023-04-27T01:04:40;9.80;;;6.15;;
9208;SDS011;4639;48.862;9.188;2023-04-27T01:07:05;11.30;;;6.93;;
9208;SDS011;4639;48.862;9.188;2023-04-27T01:09:31;14.35;;;6.60;;
9208;SDS011;4639;48.862;9.188;2023-04-27T01:11:59;9.80;;;5.25;;
9208;SDS011;4639;48.862;9.188;2023-04-27T01:14:38;9.13;;;5.65;;
9208;SDS011;4639;48.862;9.188;2023-04-27T01:17:07;7.40;;;5.35;;
9208;SDS011;4639;48.862;9.188;2023-04-27T01:19:33;10.95;;;5.90;;
9208;SDS011;4639;48.862;9.188;2023-04-27T01:22:00;12.45;;;6.30;;
9208;SDS011;4639;48.862;9.188;2023-04-27T01:24:25;9.20;;;5.72;;
9208;SDS011;4639;48.862;9.188;2023-04-27T01:26:51;9.63;;;4.47;;
9208;SDS011;4639;48.862;9.188;2023-04-27T01:29:18;12.98;;;5.38;;
9208;SDS011;4639;48.862;9.188;2023-04-27T01:31:44;5.70;;;4.97;;
9208;SDS011;4639;48.862;9.188;2023-04-27T01:34:10;8.32;;;5.07;;
9208;SDS011;4639;48.862;9.188;2023-04-27T01:36:36;12.68;;;4.70;;
9208;SDS011;4639;48.862;9.188;2023-04-27T01:39:01;7.13;;;4.60;;
9208;SDS011;4639;48.862;9.188;2023-04-27T01:41:28;7.97;;;5.05;;
9208;SDS011;4639;48.862;9.188;2023-04-27T01:43:53;9.23;;;4.60;;
9208;SDS011;4639;48.862;9.188;2023-04-27T01:46:19;9.63;;;4.88;;
9208;SDS011;4639;48.862;9.188;2023-04-27T01:48:45;12.90;;;5.03;;
9208;SDS011;4639;48.862;9.188;2023-04-27T01:51:10;8.07;;;5.03;;
9208;SDS011;4639;48.862;9.188;2023-04-27T01:53:36;7.65;;;5.05;;
9208;SDS011;4639;48.862;9.188;2023-04-27T01:56:01;9.73;;;5.20;;
9208;SDS011;4639;48.862;9.188;2023-04-27T01:58:27;8.43;;;4.85;;
9208;SDS011;4639;48.862;9.188;2023-04-27T02:00:53;6.13;;;4.90;;
9208;SDS011;4639;48.862;9.188;2023-04-27T02:03:18;9.55;;;5.45;;
9208;SDS011;4639;48.862;9.188;2023-04-27T02:05:44;7.88;;;4.90;;
9208;SDS011;4639;48.862;9.188;2023-04-27T02:08:11;7.00;;;5.03;;
9208;SDS011;4639;48.862;9.188;2023-04-27T02:10:36;8.35;;;4.88;;
9208;SDS011;4639;48.862;9.188;2023-04-27T02:13:02;6.75;;;5.03;;
9208;SDS011;4639;48.862;9.188;2023-04-27T02:15:27;7.60;;;5.05;;
9208;SDS011;4639;48.862;9.188;2023-04-27T02:17:53;7.30;;;5.05;;
9208;SDS011;4639;48.862;9.188;2023-04-27T02:20:19;8.60;;;5.10;;
9208;SDS011;4639;48.862;9.188;2023-04-27T02:22:44;7.30;;;4.95;;
9208;SDS011;4639;48.862;9.188;2023-04-27T02:25:10;6.53;;;4.85;;
9208;SDS011;4639;48.862;9.188;2023-04-27T02:27:36;7.47;;;5.30;;
9208;SDS011;4639;48.862;9.188;2023-04-27T02:30:03;7.70;;;5.05;;
9208;SDS011;4639;48.862;9.188;2023-04-27T02:32:30;9.65;;;5.38;;
9208;SDS011;4639;48.862;9.188;2023-04-27T02:34:55;7.75;;;5.45;;
9208;SDS011;4639;48.862;9.188;2023-04-27T02:37:21;7.45;;;5.43;;
9208;SDS011;4639;48.862;9.188;2023-04-27T02:39:46;7.30;;;4.90;;
9208;SDS011;4639;48.862;9.188;2023-04-27T02:42:12;8.55;;;5.30;;
9208;SDS011;4639;48.862;9.188;2023-04-27T02:44:38;7.30;;;5.28;;
9208;SDS011;4639;48.862;9.188;2023-04-27T02:47:04;8.23;;;4.97;;
9208;SDS011;4639;48.862;9.188;2023-04-27T02:49:30;9.18;;;5.40;;
9208;SDS011;4639;48.862;9.188;2023-04-27T02:51:55;7.15;;;5.15;;
9208;SDS011;4639;48.862;9.188;2023-04-27T02:54:21;7.75;;;5.20;;
9208;SDS011;4639;48.862;9.188;2023-04-27T02:56:46;9.27;;;5.40;;
9208;SDS011;4639;48.862;9.188;2023-04-27T02:59:12;6.57;;;4.80;;
9208;SDS011;4639;48.862;9.188;2023-04-27T03:01:38;9.77;;;5.57;;
9208;SDS011;4639;48.862;9.188;2023-04-27T03:04:03;9.20;;;5.35;;
9208;SDS011;4639;48.862;9.188;2023-04-27T03:06:29;7.63;;;5.20;;
9208;SDS011;4639;48.862;9.188;2023-04-27T03:08:54;7.75;;;4.55;;
9208;SDS011;4639;48.862;9.188;2023-04-27T03:11:20;8.88;;;5.05;;
9208;SDS011;4639;48.862;9.188;2023-04-27T03:13:45;6.10;;;4.63;;
9208;SDS011;4639;48.862;9.188;2023-04-27T03:16:11;6.68;;;4.43;;
9208;SDS011;4639;48.862;9.188;2023-04-27T03:18:37;6.38;;;4.60;;
9208;SDS011;4639;48.862;9.188;2023-04-27T03:21:03;7.55;;;4.68;;
9208;SDS011;4639;48.862;9.188;2023-04-27T03:23:36;6.68;;;4.82;;
9208;SDS011;4639;48.862;9.188;2023-04-27T03:26:08;12.02;;;4.63;;
9208;SDS011;4639;48.862;9.188;2023-04-27T03:28:35;9.20;;;4.68;;
9208;SDS011;4639;48.862;9.188;2023-04-27T03:31:10;5.43;;;4.90;;
9208;SDS011;4639;48.862;9.188;2023-04-27T03:33:37;10.00;;;4.53;;
9208;SDS011;4639;48.862;9.188;2023-04-27T03:36:04;8.93;;;4.65;;
9208;SDS011;4639;48.862;9.188;2023-04-27T03:38:30;7.90;;;4.63;;
9208;SDS011;4639;48.862;9.188;2023-04-27T03:40:56;6.82;;;4.50;;
9208;SDS011;4639;48.862;9.188;2023-04-27T03:43:22;7.68;;;4.68;;
9208;SDS011;4639;48.862;9.188;2023-04-27T03:45:48;7.88;;;4.75;;
9208;SDS011;4639;48.862;9.188;2023-04-27T03:48:14;7.03;;;4.80;;
9208;SDS011;4639;48.862;9.188;2023-04-27T03:50:40;8.57;;;5.07;;
9208;SDS011;4639;48.862;9.188;2023-04-27T03:53:06;7.65;;;4.90;;
9208;SDS011;4639;48.862;9.188;2023-04-27T03:55:32;7.15;;;4.88;;
9208;SDS011;4639;48.862;9.188;2023-04-27T03:57:57;8.07;;;5.13;;
9208;SDS011;4639;48.862;9.188;2023-04-27T04:00:23;8.13;;;4.88;;
9208;SDS011;4639;48.862;9.188;2023-04-27T04:02:49;8.20;;;5.25;;
9208;SDS011;4639;48.862;9.188;2023-04-27T04:05:16;7.82;;;5.68;;
9208;SDS011;4639;48.862;9.188;2023-04-27T04:07:42;6.93;;;5.28;;
9208;SDS011;4639;48.862;9.188;2023-04-27T04:10:07;7.53;;;4.88;;
9208;SDS011;4639;48.862;9.188;2023-04-27T04:12:34;5.68;;;5.15;;
9208;SDS011;4639;48.862;9.188;2023-04-27T04:15:00;9.00;;;5.40;;
9208;SDS011;4639;48.862;9.188;2023-04-27T04:17:26;12.63;;;5.75;;
9208;SDS011;4639;48.862;9.188;2023-04-27T04:19:51;8.75;;;5.57;;
9208;SDS011;4639;48.862;9.188;2023-04-27T04:22:17;7.13;;;5.28;;
9208;SDS011;4639;48.862;9.188;2023-04-27T04:24:42;8.40;;;5.45;;
9208;SDS011;4639;48.862;9.188;2023-04-27T04:27:08;8.60;;;5.60;;
9208;SDS011;4639;48.862;9.188;2023-04-27T04:29:34;9.02;;;5.65;;
9208;SDS011;4639;48.862;9.188;2023-04-27T04:31:59;7.55;;;5.43;;
9208;SDS011;4639;48.862;9.188;2023-04-27T04:34:25;8.73;;;5.50;;
9208;SDS011;4639;48.862;9.188;2023-04-27T04:36:51;7.57;;;5.22;;
9208;SDS011;4639;48.862;9.188;2023-04-27T04:39:17;7.57;;;6.15;;
9208;SDS011;4639;48.862;9.188;2023-04-27T04:41:46;10.00;;;6.20;;
9208;SDS011;4639;48.862;9.188;2023-04-27T04:44:13;7.30;;;5.13;;
9208;SDS011;4639;48.862;9.188;2023-04-27T04:46:39;6.97;;;4.70;;
9208;SDS011;4639;48.862;9.188;2023-04-27T04:49:05;7.47;;;5.93;;
9208;SDS011;4639;48.862;9.188;2023-04-27T04:51:31;7.18;;;5.03;;
9208;SDS011;4639;48.862;9.188;2023-04-27T04:53:57;7.97;;;5.32;;
9208;SDS011;4639;48.862;9.188;2023-04-27T04:56:22;6.38;;;5.25;;
9208;SDS011;4639;48.862;9.188;2023-04-27T04:58:48;9.60;;;5.45;;
9208;SDS011;4639;48.862;9.188;2023-04-27T05:01:14;6.80;;;5.22;;
9208;SDS011;4639;48.862;9.188;2023-04-27T05:03:39;7.13;;;5.13;;
9208;SDS011;4639;48.862;9.188;2023-04-27T05:06:05;8.23;;;5.15;;
9208;SDS011;4639;48.862;9.188;2023-04-27T05:08:31;8.10;;;5.18;;
9208;SDS011;4639;48.862;9.188;2023-04-27T05:10:56;6.10;;;5.47;;
9208;SDS011;4639;48.862;9.188;2023-04-27T05:13:22;8.80;;;5.85;;
9208;SDS011;4639;48.862;9.188;2023-04-27T05:15:51;9.15;;;5.50;;
9208;SDS011;4639;48.862;9.188;2023-04-27T05:18:17;6.95;;;5.28;;
9208;SDS011;4639;48.862;9.188;2023-04-27T05:20:43;7.90;;;5.45;;
9208;SDS011;4639;48.862;9.188;2023-04-27T05:23:08;12.77;;;5.55;;
9208;SDS011;4639;48.862;9.188;2023-04-27T05:25:34;10.07;;;5.40;;
9208;SDS011;4639;48.862;9.188;2023-04-27T05:28:08;7.20;;;5.60;;
9208;SDS011;4639;48.862;9.188;2023-04-27T05:30:34;9.85;;;5.70;;
9208;SDS011;4639;48.862;9.188;2023-04-27T05:33:01;9.25;;;5.50;;
9208;SDS011;4639;48.862;9.188;2023-04-27T05:35:28;8.90;;;6.03;;
9208;SDS011;4639;48.862;9.188;2023-04-27T05:37:54;12.93;;;5.80;;
9208;SDS011;4639;48.862;9.188;2023-04-27T05:40:20;8.85;;;5.70;;
9208;SDS011;4639;48.862;9.188;2023-04-27T05:42:46;10.43;;;5.80;;
9208;SDS011;4639;48.862;9.188;2023-04-27T05:45:11;7.05;;;5.45;;
9208;SDS011;4639;48.862;9.188;2023-04-27T05:47:37;10.13;;;5.97;;
9208;SDS011;4639;48.862;9.188;2023-04-27T05:50:03;8.88;;;5.60;;
9208;SDS011;4639;48.862;9.188;2023-04-27T05:52:30;7.07;;;5.07;;
9208;SDS011;4639;48.862;9.188;2023-04-27T05:54:56;6.93;;;5.68;;
9208;SDS011;4639;48.862;9.188;2023-04-27T05:57:22;11.57;;;5.80;;
9208;SDS011;4639;48.862;9.188;2023-04-27T05:59:49;21.13;;;5.80;;
9208;SDS011;4639;48.862;9.188;2023-04-27T06:02:14;11.65;;;6.25;;
9208;SDS011;4639;48.862;9.188;2023-04-27T06:04:40;13.13;;;6.05;;
9208;SDS011;4639;48.862;9.188;2023-04-27T06:07:06;13.77;;;6.47;;
9208;SDS011;4639;48.862;9.188;2023-04-27T06:09:36;12.90;;;6.55;;
9208;SDS011;4639;48.862;9.188;2023-04-27T06:12:02;12.18;;;6.38;;
9208;SDS011;4639;48.862;9.188;2023-04-27T06:14:28;7.78;;;5.90;;
9208;SDS011;4639;48.862;9.188;2023-04-27T06:16:54;9.15;;;5.88;;
9208;SDS011;4639;48.862;9.188;2023-04-27T06:19:20;9.40;;;5.85;;
9208;SDS011;4639;48.862;9.188;2023-04-27T06:21:46;11.15;;;6.50;;
9208;SDS011;4639;48.862;9.188;2023-04-27T06:24:11;12.73;;;5.88;;
9208;SDS011;4639;48.862;9.188;2023-04-27T06:26:37;10.77;;;5.90;;
9208;SDS011;4639;48.862;9.188;2023-04-27T06:29:03;11.27;;;6.32;;
9208;SDS011;4639;48.862;9.188;2023-04-27T06:31:28;17.85;;;6.25;;
9208;SDS011;4639;48.862;9.188;2023-04-27T06:33:54;9.50;;;5.70;;
9208;SDS011;4639;48.862;9.188;2023-04-27T06:36:20;7.05;;;5.40;;
9208;SDS011;4639;48.862;9.188;2023-04-27T06:38:46;7.28;;;5.60;;
9208;SDS011;4639;48.862;9.188;2023-04-27T06:41:11;8.77;;;6.07;;
9208;SDS011;4639;48.862;9.188;2023-04-27T06:43:37;9.38;;;5.88;;
9208;SDS011;4639;48.862;9.188;2023-04-27T06:46:03;12.02;;;5.72;;
9208;SDS011;4639;48.862;9.188;2023-04-27T06:48:29;8.38;;;6.00;;
9208;SDS011;4639;48.862;9.188;2023-04-27T06:50:55;9.82;;;5.93;;
9208;SDS011;4639;48.862;9.188;2023-04-27T06:53:20;11.38;;;5.80;;
9208;SDS011;4639;48.862;9.188;2023-04-27T06:55:46;9.27;;;5.75;;
9208;SDS011;4639;48.862;9.188;2023-04-27T06:58:11;8.75;;;5.97;;
9208;SDS011;4639;48.862;9.188;2023-04-27T07:00:37;9.45;;;5.70;;
9208;SDS011;4639;48.862;9.188;2023-04-27T07:03:03;11.38;;;5.72;;
9208;SDS011;4639;48.862;9.188;2023-04-27T07:05:28;9.07;;;5.68;;
9208;SDS011;4639;48.862;9.188;2023-04-27T07:07:54;10.77;;;5.82;;
9208;SDS011;4639;48.862;9.188;2023-04-27T07:10:19;12.75;;;6.65;;
9208;SDS011;4639;48.862;9.188;2023-04-27T07:12:45;7.90;;;6.10;;
9208;SDS011;4639;48.862;9.188;2023-04-27T07:15:11;9.80;;;6.45;;
9208;SDS011;4639;48.862;9.188;2023-04-27T07:17:36;11.85;;;6.45;;
9208;SDS011;4639;48.862;9.188;2023-04-27T07:20:02;13.40;;;6.07;;
9208;SDS011;4639;48.862;9.188;2023-04-27T07:22:30;13.85;;;6.15;;
9208;SDS011;4639;48.862;9.188;2023-04-27T07:24:56;13.63;;;7.03;;
9208;SDS011;4639;48.862;9.188;2023-04-27T07:27:21;11.93;;;6.38;;
9208;SDS011;4639;48.862;9.188;2023-04-27T07:29:47;12.98;;;6.75;;
9208;SDS011;4639;48.862;9.188;2023-04-27T07:32:13;13.60;;;7.57;;
9208;SDS011;4639;48.862;9.188;2023-04-27T07:34:38;17.63;;;7.15;;
9208;SDS011;4639;48.862;9.188;2023-04-27T07:37:05;11.25;;;6.70;;
9208;SDS011;4639;48.862;9.188;2023-04-27T07:39:32;13.45;;;6.25;;
9208;SDS011;4639;48.862;9.188;2023-04-27T07:41:57;17.25;;;6.57;;
9208;SDS011;4639;48.862;9.188;2023-04-27T07:44:24;12.43;;;5.60;;
9208;SDS011;4639;48.862;9.188;2023-04-27T07:46:49;10.43;;;6.00;;
9208;SDS011;4639;48.862;9.188;2023-04-27T07:49:18;8.00;;;5.85;;
9208;SDS011;4639;48.862;9.188;2023-04-27T07:51:44;11.35;;;5.57;;
9208;SDS011;4639;48.862;9.188;2023-04-27T07:54:09;10.10;;;5.30;;
9208;SDS011;4639;48.862;9.188;2023-04-27T07:56:35;11.23;;;5.47;;
9208;SDS011;4639;48.862;9.188;2023-04-27T07:59:01;10.13;;;5.13;;
9208;SDS011;4639;48.862;9.188;2023-04-27T08:01:26;11.75;;;5.70;;
9208;SDS011;4639;48.862;9.188;2023-04-27T08:03:52;9.68;;;5.43;;
9208;SDS011;4639;48.862;9.188;2023-04-27T08:06:18;8.27;;;5.28;;
9208;SDS011;4639;48.862;9.188;2023-04-27T08:08:43;9.88;;;5.40;;
9208;SDS011;4639;48.862;9.188;2023-04-27T08:11:12;12.88;;;5.90;;
9208;SDS011;4639;48.862;9.188;2023-04-27T08:13:38;11.95;;;5.25;;
9208;SDS011;4639;48.862;9.188;2023-04-27T08:16:03;8.43;;;5.38;;
9208;SDS011;4639;48.862;9.188;2023-04-27T08:18:29;7.80;;;5.03;;
9208;SDS011;4639;48.862;9.188;2023-04-27T08:20:55;10.80;;;4.72;;
9208;SDS011;4639;48.862;9.188;2023-04-27T08:23:21;9.15;;;5.22;;
9208;SDS011;4639;48.862;9.188;2023-04-27T08:25:46;7.25;;;4.55;;
9208;SDS011;4639;48.862;9.188;2023-04-27T08:28:13;7.28;;;4.60;;
9208;SDS011;4639;48.862;9.188;2023-04-27T08:30:42;11.93;;;4.95;;
9208;SDS011;4639;48.862;9.188;2023-04-27T08:33:08;6.70;;;4.28;;
9208;SDS011;4639;48.862;9.188;2023-04-27T08:35:34;8.55;;;4.15;;
9208;SDS011;4639;48.862;9.188;2023-04-27T08:38:00;7.50;;;4.05;;
9208;SDS011;4639;48.862;9.188;2023-04-27T08:40:28;5.35;;;3.50;;
9208;SDS011;4639;48.862;9.188;2023-04-27T08:42:57;6.38;;;3.83;;
9208;SDS011;4639;48.862;9.188;2023-04-27T08:45:24;5.28;;;3.70;;
9208;SDS011;4639;48.862;9.188;2023-04-27T08:47:50;8.27;;;3.67;;
9208;SDS011;4639;48.862;9.188;2023-04-27T08:50:16;6.32;;;3.60;;
9208;SDS011;4639;48.862;9.188;2023-04-27T08:52:43;7.13;;;3.92;;
9208;SDS011;4639;48.862;9.188;2023-04-27T08:55:12;6.30;;;2.88;;
9208;SDS011;4639;48.862;9.188;2023-04-27T08:57:38;7.95;;;2.90;;
9208;SDS011;4639;48.862;9.188;2023-04-27T09:00:04;6.65;;;3.35;;
9208;SDS011;4639;48.862;9.188;2023-04-27T09:02:47;6.47;;;3.83;;
9208;SDS011;4639;48.862;9.188;2023-04-27T09:05:20;7.90;;;3.83;;
9208;SDS011;4639;48.862;9.188;2023-04-27T09:07:56;6.43;;;3.42;;
9208;SDS011;4639;48.862;9.188;2023-04-27T09:10:21;8.85;;;3.10;;
9208;SDS011;4639;48.862;9.188;2023-04-27T09:12:54;7.95;;;3.00;;
9208;SDS011;4639;48.862;9.188;2023-04-27T09:15:21;4.20;;;2.90;;
9208;SDS011;4639;48.862;9.188;2023-04-27T09:17:51;6.72;;;2.90;;
9208;SDS011;4639;48.862;9.188;2023-04-27T09:20:18;6.10;;;3.17;;
9208;SDS011;4639;48.862;9.188;2023-04-27T09:25:09;6.00;;;3.22;;
9208;SDS011;4639;48.862;9.188;2023-04-27T09:27:46;4.55;;;3.20;;
9208;SDS011;4639;48.862;9.188;2023-04-27T09:30:12;7.13;;;4.03;;
9208;SDS011;4639;48.862;9.188;2023-04-27T09:32:38;5.65;;;3.80;;
9208;SDS011;4639;48.862;9.188;2023-04-27T09:35:04;7.07;;;3.67;;
9208;SDS011;4639;48.862;9.188;2023-04-27T09:37:44;5.18;;;3.60;;
9208;SDS011;4639;48.862;9.188;2023-04-27T09:40:10;6.03;;;3.42;;
9208;SDS011;4639;48.862;9.188;2023-04-27T09:42:36;5.55;;;3.28;;
9208;SDS011;4639;48.862;9.188;2023-04-27T09:45:02;6.82;;;4.15;;
9208;SDS011;4639;48.862;9.188;2023-04-27T09:47:31;7.70;;;3.30;;
9208;SDS011;4639;48.862;9.188;2023-04-27T09:49:58;7.82;;;3.90;;
9208;SDS011;4639;48.862;9.188;2023-04-27T09:52:25;5.13;;;3.50;;
9208;SDS011;4639;48.862;9.188;2023-04-27T09:54:52;6.07;;;3.78;;
9208;SDS011;4639;48.862;9.188;2023-04-27T09:57:25;6.43;;;3.70;;
9208;SDS011;4639;48.862;9.188;2023-04-27T10:00:07;8.30;;;4.60;;
9208;SDS011;4639;48.862;9.188;2023-04-27T10:08:06;6.97;;;4.03;;
9208;SDS011;4639;48.862;9.188;2023-04-27T10:10:46;7.85;;;4.18;;
9208;SDS011;4639;48.862;9.188;2023-04-27T10:13:19;5.88;;;3.95;;
9208;SDS011;4639;48.862;9.188;2023-04-27T10:15:50;8.85;;;3.85;;
9208;SDS011;4639;48.862;9.188;2023-04-27T10:18:25;5.78;;;3.67;;
9208;SDS011;4639;48.862;9.188;2023-04-27T10:20:55;6.10;;;3.80;;
9208;SDS011;4639;48.862;9.188;2023-04-27T10:23:24;4.90;;;4.10;;
9208;SDS011;4639;48.862;9.188;2023-04-27T10:25:51;6.10;;;3.65;;
9208;SDS011;4639;48.862;9.188;2023-04-27T10:28:18;5.50;;;3.38;;
9208;SDS011;4639;48.862;9.188;2023-04-27T10:30:47;8.15;;;4.40;;
9208;SDS011;4639;48.862;9.188;2023-04-27T10:33:20;5.68;;;3.83;;
9208;SDS011;4639;48.862;9.188;2023-04-27T10:35:54;9.13;;;4.07;;
9208;SDS011;4639;48.862;9.188;2023-04-27T10:38:26;10.05;;;4.25;;
9208;SDS011;4639;48.862;9.188;2023-04-27T10:40:53;18.58;;;3.47;;
9208;SDS011;4639;48.862;9.188;2023-04-27T10:43:25;5.32;;;3.63;;
9208;SDS011;4639;48.862;9.188;2023-04-27T10:45:53;6.15;;;3.65;;
9208;SDS011;4639;48.862;9.188;2023-04-27T10:48:18;6.28;;;3.72;;
9208;SDS011;4639;48.862;9.188;2023-04-27T10:50:44;7.10;;;3.50;;
9208;SDS011;4639;48.862;9.188;2023-04-27T10:53:11;5.53;;;3.03;;
9208;SDS011;4639;48.862;9.188;2023-04-27T10:55:36;9.98;;;6.63;;
9208;SDS011;4639;48.862;9.188;2023-04-27T10:58:02;5.78;;;3.53;;
9208;SDS011;4639;48.862;9.188;2023-04-27T11:02:55;5.15;;;3.85;;
9208;SDS011;4639;48.862;9.188;2023-04-27T11:05:25;6.88;;;3.42;;
9208;SDS011;4639;48.862;9.188;2023-04-27T11:08:06;7.22;;;3.67;;
9208;SDS011;4639;48.862;9.188;2023-04-27T11:10:33;7.07;;;3.38;;
9208;SDS011;4639;48.862;9.188;2023-04-27T11:13:06;12.10;;;4.45;;
9208;SDS011;4639;48.862;9.188;2023-04-27T11:18:14;4.90;;;3.55;;
9208;SDS011;4639;48.862;9.188;2023-04-27T11:20:45;5.78;;;3.40;;
9208;SDS011;4639;48.862;9.188;2023-04-27T11:23:26;7.30;;;3.83;;
9208;SDS011;4639;48.862;9.188;2023-04-27T11:25:53;5.85;;;3.63;;
9208;SDS011;4639;48.862;9.188;2023-04-27T11:28:20;7.65;;;4.25;;
9208;SDS011;4639;48.862;9.188;2023-04-27T11:30:56;5.00;;;3.75;;
9208;SDS011;4639;48.862;9.188;2023-04-27T11:33:22;5.30;;;3.60;;
9208;SDS011;4639;48.862;9.188;2023-04-27T11:35:48;4.88;;;3.30;;
9208;SDS011;4639;48.862;9.188;2023-04-27T11:38:17;7.40;;;3.70;;
9208;SDS011;4639;48.862;9.188;2023-04-27T11:40:44;7.30;;;3.80;;
9208;SDS011;4639;48.862;9.188;2023-04-27T11:43:14;6.13;;;3.80;;
9208;SDS011;4639;48.862;9.188;2023-04-27T11:45:43;6.20;;;3.25;;
9208;SDS011;4639;48.862;9.188;2023-04-27T11:48:12;8.85;;;3.88;;
9208;SDS011;4639;48.862;9.188;2023-04-27T11:50:45;5.35;;;3.75;;
9208;SDS011;4639;48.862;9.188;2023-04-27T11:53:12;5.20;;;3.53;;
9208;SDS011;4639;48.862;9.188;2023-04-27T11:55:37;6.20;;;3.58;;
9208;SDS011;4639;48.862;9.188;2023-04-27T11:58:05;6.57;;;3.83;;
9208;SDS011;4639;48.862;9.188;2023-04-27T12:00:36;6.53;;;3.88;;
9208;SDS011;4639;48.862;9.188;2023-04-27T12:03:02;7.38;;;3.78;;
9208;SDS011;4639;48.862;9.188;2023-04-27T12:05:28;5.47;;;3.92;;
9208;SDS011;4639;48.862;9.188;2023-04-27T12:07:53;11.43;;;4.20;;
9208;SDS011;4639;48.862;9.188;2023-04-27T12:10:19;8.70;;;4.25;;
9208;SDS011;4639;48.862;9.188;2023-04-27T12:12:44;6.75;;;4.00;;
9208;SDS011;4639;48.862;9.188;2023-04-27T12:15:10;8.65;;;4.22;;
9208;SDS011;4639;48.862;9.188;2023-04-27T12:17:37;7.07;;;4.10;;
9208;SDS011;4639;48.862;9.188;2023-04-27T12:20:03;6.72;;;3.95;;
9208;SDS011;4639;48.862;9.188;2023-04-27T12:22:29;6.78;;;3.83;;
9208;SDS011;4639;48.862;9.188;2023-04-27T12:24:55;8.18;;;3.80;;
9208;SDS011;4639;48.862;9.188;2023-04-27T12:27:20;8.40;;;4.25;;
9208;SDS011;4639;48.862;9.188;2023-04-27T12:29:46;9.80;;;3.63;;
9208;SDS011;4639;48.862;9.188;2023-04-27T12:32:11;5.65;;;3.33;;
9208;SDS011;4639;48.862;9.188;2023-04-27T12:34:37;5.22;;;3.92;;
9208;SDS011;4639;48.862;9.188;2023-04-27T12:37:03;6.82;;;3.90;;
9208;SDS011;4639;48.862;9.188;2023-04-27T12:39:30;4.07;;;3.30;;
9208;SDS011;4639;48.862;9.188;2023-04-27T12:41:56;7.32;;;3.40;;
9208;SDS011;4639;48.862;9.188;2023-04-27T12:44:22;6.25;;;3.80;;
9208;SDS011;4639;48.862;9.188;2023-04-27T12:46:48;4.07;;;3.67;;
9208;SDS011;4639;48.862;9.188;2023-04-27T12:49:13;5.60;;;3.60;;
9208;SDS011;4639;48.862;9.188;2023-04-27T12:51:39;6.75;;;3.72;;
9208;SDS011;4639;48.862;9.188;2023-04-27T12:54:05;8.05;;;3.92;;
9208;SDS011;4639;48.862;9.188;2023-04-27T12:56:33;7.38;;;3.85;;
9208;SDS011;4639;48.862;9.188;2023-04-27T12:58:59;5.88;;;3.97;;
9208;SDS011;4639;48.862;9.188;2023-04-27T13:01:25;7.40;;;3.90;;
9208;SDS011;4639;48.862;9.188;2023-04-27T13:03:58;5.60;;;4.10;;
9208;SDS011;4639;48.862;9.188;2023-04-27T13:06:25;7.28;;;4.25;;
9208;SDS011;4639;48.862;9.188;2023-04-27T13:08:52;6.65;;;3.90;;
9208;SDS011;4639;48.862;9.188;2023-04-27T13:11:18;4.15;;;3.42;;
9208;SDS011;4639;48.862;9.188;2023-04-27T13:13:44;9.40;;;3.88;;
9208;SDS011;4639;48.862;9.188;2023-04-27T13:16:10;5.85;;;3.33;;
9208;SDS011;4639;48.862;9.188;2023-04-27T13:18:36;6.97;;;3.70;;
9208;SDS011;4639;48.862;9.188;2023-04-27T13:21:03;7.28;;;3.58;;
9208;SDS011;4639;48.862;9.188;2023-04-27T13:23:29;9.32;;;4.53;;
9208;SDS011;4639;48.862;9.188;2023-04-27T13:25:58;7.47;;;4.90;;
9208;SDS011;4639;48.862;9.188;2023-04-27T13:28:27;8.43;;;4.40;;
9208;SDS011;4639;48.862;9.188;2023-04-27T13:30:52;10.32;;;4.50;;
9208;SDS011;4639;48.862;9.188;2023-04-27T13:33:18;8.38;;;4.50;;
9208;SDS011;4639;48.862;9.188;2023-04-27T13:35:43;10.85;;;5.07;;
9208;SDS011;4639;48.862;9.188;2023-04-27T13:38:09;12.15;;;4.53;;
9208;SDS011;4639;48.862;9.188;2023-04-27T13:40:35;5.00;;;3.92;;
9208;SDS011;4639;48.862;9.188;2023-04-27T13:43:00;9.25;;;4.70;;
9208;SDS011;4639;48.862;9.188;2023-04-27T13:45:26;6.28;;;4.20;;
9208;SDS011;4639;48.862;9.188;2023-04-27T13:47:52;6.90;;;4.80;;
9208;SDS011;4639;48.862;9.188;2023-04-27T13:50:17;9.95;;;4.93;;
9208;SDS011;4639;48.862;9.188;2023-04-27T13:52:43;9.23;;;5.18;;
9208;SDS011;4639;48.862;9.188;2023-04-27T13:55:09;9.02;;;4.65;;
9208;SDS011;4639;48.862;9.188;2023-04-27T13:57:36;7.00;;;4.82;;
9208;SDS011;4639;48.862;9.188;2023-04-27T14:00:02;6.90;;;4.95;;
9208;SDS011;4639;48.862;9.188;2023-04-27T14:02:35;10.30;;;4.20;;
9208;SDS011;4639;48.862;9.188;2023-04-27T14:05:01;7.80;;;4.22;;
9208;SDS011;4639;48.862;9.188;2023-04-27T14:07:26;7.47;;;3.90;;
9208;SDS011;4639;48.862;9.188;2023-04-27T14:09:52;7.75;;;3.92;;
9208;SDS011;4639;48.862;9.188;2023-04-27T14:12:17;9.40;;;4.13;;
9208;SDS011;4639;48.862;9.188;2023-04-27T14:14:44;6.47;;;5.15;;
9208;SDS011;4639;48.862;9.188;2023-04-27T14:17:09;5.57;;;4.07;;
9208;SDS011;4639;48.862;9.188;2023-04-27T14:19:35;6.47;;;4.55;;
9208;SDS011;4639;48.862;9.188;2023-04-27T14:22:01;7.93;;;4.57;;
9208;SDS011;4639;48.862;9.188;2023-04-27T14:24:28;12.38;;;4.10;;
9208;SDS011;4639;48.862;9.188;2023-04-27T14:26:54;5.72;;;3.80;;
9208;SDS011;4639;48.862;9.188;2023-04-27T14:29:19;12.15;;;4.47;;
9208;SDS011;4639;48.862;9.188;2023-04-27T14:31:45;5.30;;;4.03;;
9208;SDS011;4639;48.862;9.188;2023-04-27T14:34:11;9.18;;;4.60;;
9208;SDS011;4639;48.862;9.188;2023-04-27T14:36:41;4.60;;;3.42;;
9208;SDS011;4639;48.862;9.188;2023-04-27T14:39:07;8.23;;;3.55;;
9208;SDS011;4639;48.862;9.188;2023-04-27T14:41:33;4.97;;;4.05;;
9208;SDS011;4639;48.862;9.188;2023-04-27T14:44:01;11.23;;;4.40;;
9208;SDS011;4639;48.862;9.188;2023-04-27T14:46:27;9.13;;;4.70;;
9208;SDS011;4639;48.862;9.188;2023-04-27T14:48:52;7.55;;;4.30;;
9208;SDS011;4639;48.862;9.188;2023-04-27T14:51:18;7.90;;;4.25;;
9208;SDS011;4639;48.862;9.188;2023-04-27T14:53:44;6.10;;;4.40;;
9208;SDS011;4639;48.862;9.188;2023-04-27T14:56:09;6.38;;;4.32;;
9208;SDS011;4639;48.862;9.188;2023-04-27T14:58:35;12.30;;;4.95;;
9208;SDS011;4639;48.862;9.188;2023-04-27T15:01:01;8.40;;;4.57;;
9208;SDS011;4639;48.862;9.188;2023-04-27T15:03:27;7.38;;;4.50;;
9208;SDS011;4639;48.862;9.188;2023-04-27T15:05:56;7.82;;;3.97;;
9208;SDS011;4639;48.862;9.188;2023-04-27T15:08:21;6.47;;;3.70;;
9208;SDS011;4639;48.862;9.188;2023-04-27T15:10:47;6.72;;;3.83;;
9208;SDS011;4639;48.862;9.188;2023-04-27T15:13:12;9.15;;;4.28;;
9208;SDS011;4639;48.862;9.188;2023-04-27T15:15:38;6.95;;;4.25;;
9208;SDS011;4639;48.862;9.188;2023-04-27T15:18:03;7.43;;;3.92;;
9208;SDS011;4639;48.862;9.188;2023-04-27T15:20:29;5.82;;;4.03;;
9208;SDS011;4639;48.862;9.188;2023-04-27T15:22:55;7.07;;;4.15;;
9208;SDS011;4639;48.862;9.188;2023-04-27T15:25:20;8.60;;;4.25;;
9208;SDS011;4639;48.862;9.188;2023-04-27T15:27:46;5.43;;;3.67;;
9208;SDS011;4639;48.862;9.188;2023-04-27T15:30:13;6.47;;;4.50;;
9208;SDS011;4639;48.862;9.188;2023-04-27T15:32:39;7.75;;;4.22;;
9208;SDS011;4639;48.862;9.188;2023-04-27T15:35:05;6.60;;;4.50;;
9208;SDS011;4639;48.862;9.188;2023-04-27T15:37:33;8.63;;;4.05;;
9208;SDS011;4639;48.862;9.188;2023-04-27T15:40:00;6.22;;;4.07;;
9208;SDS011;4639;48.862;9.188;2023-04-27T15:42:27;6.63;;;4.30;;
9208;SDS011;4639;48.862;9.188;2023-04-27T15:44:52;7.55;;;4.22;;
9208;SDS011;4639;48.862;9.188;2023-04-27T15:47:18;5.93;;;3.92;;
9208;SDS011;4639;48.862;9.188;2023-04-27T15:49:47;7.72;;;3.90;;
9208;SDS011;4639;48.862;9.188;2023-04-27T15:52:12;7.90;;;4.15;;
9208;SDS011;4639;48.862;9.188;2023-04-27T15:54:38;5.88;;;3.83;;